createdAt,value
2022-11-29T00:00:48.273Z,100676.41
2022-11-29T00:03:15.410Z,100661.56
2022-11-29T00:05:41.959Z,100671.50
2022-11-29T00:08:08.719Z,100664.41
2022-11-29T00:10:38.285Z,100666.22
2022-11-29T00:13:04.915Z,100677.53
2022-11-29T00:15:39.179Z,100674.28
2022-11-29T00:18:06.526Z,100675.91
2022-11-29T00:20:35.165Z,100667.84
2022-11-29T00:23:01.836Z,100674.84
2022-11-29T00:25:28.372Z,100673.03
2022-11-29T00:27:54.853Z,100684.25
2022-11-29T00:30:21.585Z,100683.13
2022-11-29T00:32:48.163Z,100679.88
2022-11-29T00:35:14.636Z,100666.03
2022-11-29T00:37:41.230Z,100664.41
2022-11-29T00:40:08.352Z,100678.94
2022-11-29T00:42:35.294Z,100662.97
2022-11-29T00:45:01.778Z,100664.09
2022-11-29T00:47:28.306Z,100667.91
2022-11-29T00:49:54.770Z,100664.66
2022-11-29T00:52:21.329Z,100663.25
2022-11-29T00:54:47.863Z,100658.03
2022-11-29T00:57:14.350Z,100658.88
2022-11-29T00:59:40.799Z,100654.50
2022-11-29T01:02:07.242Z,100657.25
2022-11-29T01:04:33.949Z,100658.88
2022-11-29T01:07:00.564Z,100648.41
2022-11-29T01:09:26.987Z,100651.81
2022-11-29T01:11:53.426Z,100651.94
2022-11-29T01:14:19.844Z,100644.31
2022-11-29T01:16:46.368Z,100648.72
2022-11-29T01:19:12.904Z,100648.63
2022-11-29T01:21:39.317Z,100641.69
2022-11-29T01:24:05.949Z,100642.06
2022-11-29T01:26:32.466Z,100641.69
2022-11-29T01:28:59.575Z,100637.25
2022-11-29T01:31:31.740Z,100628.34
2022-11-29T01:34:00.434Z,100634.69
2022-11-29T01:36:27.312Z,100627.63
2022-11-29T01:38:54.062Z,100631.03
2022-11-29T01:41:25.432Z,100631.88
2022-11-29T01:44:04.073Z,100623.41
2022-11-29T01:46:38.515Z,100628.63
2022-11-29T01:49:17.690Z,100624.44
2022-11-29T01:51:56.269Z,100621.16
2022-11-29T01:54:23.069Z,100622.56
2022-11-29T01:56:50.584Z,100621.78
2022-11-29T01:59:19.848Z,100627.63
2022-11-29T02:01:46.355Z,100623.56
2022-11-29T02:04:13.900Z,100628.34
2022-11-29T02:06:41.460Z,100626.59
2022-11-29T02:09:19.582Z,100624.66
2022-11-29T02:12:00.820Z,100620.41
2022-11-29T02:14:40.302Z,100629.34
2022-11-29T02:17:44.280Z,100623.59
2022-11-29T02:20:42.827Z,100624.03
2022-11-29T02:23:23.750Z,100628.22
2022-11-29T02:26:03.449Z,100635.28
2022-11-29T02:28:38.777Z,100634.78
2022-11-29T02:31:20.919Z,100634.06
2022-11-29T02:34:16.895Z,100628.78
2022-11-29T02:37:11.666Z,100633.28
2022-11-29T02:39:52.814Z,100635.22
2022-11-29T02:42:56.114Z,100637.69
2022-11-29T02:45:49.208Z,100635.47
2022-11-29T02:48:50.070Z,100638.25
2022-11-29T02:51:28.168Z,100640.09
2022-11-29T02:54:11.495Z,100640.13
2022-11-29T02:56:44.229Z,100643.53
2022-11-29T02:59:29.446Z,100641.75
2022-11-29T03:02:03.267Z,100644.81
2022-11-29T03:04:35.522Z,100642.28
2022-11-29T03:07:27.441Z,100651.13
2022-11-29T03:10:06.051Z,100645.56
2022-11-29T03:12:39.643Z,100655.50
2022-11-29T03:15:24.950Z,100637.03
2022-11-29T03:18:01.761Z,100648.91
2022-11-29T03:20:55.618Z,100645.16
2022-11-29T03:23:38.230Z,100642.06
2022-11-29T03:26:15.742Z,100645.56
2022-11-29T03:28:52.045Z,100647.97
2022-11-29T03:31:28.837Z,100646.97
2022-11-29T03:34:26.829Z,100648.13
2022-11-29T03:37:02.462Z,100646.72
2022-11-29T03:39:42.867Z,100652.22
2022-11-29T03:42:17.879Z,100652.53
2022-11-29T03:44:53.748Z,100661.16
2022-11-29T03:47:26.268Z,100652.53
2022-11-29T03:49:58.065Z,100653.94
2022-11-29T03:52:53.798Z,100657.75
2022-11-29T03:55:49.198Z,100659.09
2022-11-29T03:58:30.470Z,100657.91
2022-11-29T04:01:24.271Z,100663.25
2022-11-29T04:04:30.755Z,100662.88
2022-11-29T04:07:21.572Z,100671.31
2022-11-29T04:10:03.753Z,100666.03
2022-11-29T04:12:45.519Z,100668.56
2022-11-29T04:15:34.030Z,100669.78
2022-11-29T04:18:06.670Z,100675.22
2022-11-29T04:21:06.855Z,100676.53
2022-11-29T04:24:17.668Z,100676.75
2022-11-29T04:26:52.766Z,100685.66
2022-11-29T04:29:30.203Z,100672.72
2022-11-29T04:32:19.658Z,100687.56
2022-11-29T04:35:14.020Z,100684.59
2022-11-29T04:38:02.301Z,100680.94
2022-11-29T04:41:10.610Z,100677.09
2022-11-29T04:43:51.862Z,100687.41
2022-11-29T04:46:49.191Z,100683.91
2022-11-29T04:49:28.900Z,100675.53
2022-11-29T04:52:15.023Z,100685.00
2022-11-29T04:55:02.965Z,100692.84
2022-11-29T04:57:46.462Z,100688.41
2022-11-29T05:00:16.156Z,100694.69
2022-11-29T05:02:58.196Z,100689.53
2022-11-29T05:05:43.207Z,100699.41
2022-11-29T05:08:40.884Z,100704.44
2022-11-29T05:11:16.069Z,100689.78
2022-11-29T05:13:58.940Z,100702.66
2022-11-29T05:16:40.548Z,100701.09
2022-11-29T05:19:26.159Z,100708.47
2022-11-29T05:22:20.629Z,100707.88
2022-11-29T05:24:55.613Z,100701.03
2022-11-29T05:27:22.009Z,100714.09
2022-11-29T05:29:54.407Z,100719.97
2022-11-29T05:32:45.711Z,100718.19
2022-11-29T05:35:33.932Z,100723.53
2022-11-29T05:38:05.611Z,100731.94
2022-11-29T05:40:53.321Z,100724.94
2022-11-29T05:43:36.119Z,100726.91
2022-11-29T05:46:22.804Z,100727.81
2022-11-29T05:49:17.461Z,100731.94
2022-11-29T05:51:56.190Z,100736.88
2022-11-29T05:54:34.350Z,100732.84
2022-11-29T05:57:45.633Z,100732.63
2022-11-29T06:00:14.707Z,100738.00
2022-11-29T06:02:55.027Z,100753.50
2022-11-29T06:05:39.637Z,100755.13
2022-11-29T06:08:30.429Z,100758.00
2022-11-29T06:11:05.831Z,100756.06
2022-11-29T06:14:09.859Z,100755.81
2022-11-29T06:17:01.922Z,100753.50
2022-11-29T06:19:35.105Z,100760.69
2022-11-29T06:22:20.965Z,100767.56
2022-11-29T06:25:32.570Z,100775.19
2022-11-29T06:28:07.807Z,100763.66
2022-11-29T06:31:05.429Z,100769.69
2022-11-29T06:33:48.487Z,100769.97
2022-11-29T06:36:20.051Z,100771.81
2022-11-29T06:38:47.187Z,100770.56
2022-11-29T06:41:18.432Z,100769.44
2022-11-29T06:43:45.756Z,100769.00
2022-11-29T06:46:25.589Z,100769.56
2022-11-29T06:49:02.229Z,100777.53
2022-11-29T06:51:34.377Z,100776.22
2022-11-29T06:54:07.989Z,100781.22
2022-11-29T06:56:44.587Z,100781.88
2022-11-29T06:59:30.896Z,100777.91
2022-11-29T07:02:42.735Z,100788.53
2022-11-29T07:05:18.032Z,100788.00
2022-11-29T07:07:47.225Z,100793.81
2022-11-29T07:10:18.643Z,100792.19
2022-11-29T07:12:46.490Z,100799.97
2022-11-29T07:15:18.758Z,100794.78
2022-11-29T07:17:54.825Z,100797.56
2022-11-29T07:20:31.407Z,100793.59
2022-11-29T07:23:19.668Z,100793.09
2022-11-29T07:26:05.065Z,100793.22
2022-11-29T07:28:46.605Z,100795.63
2022-11-29T07:31:42.830Z,100797.47
2022-11-29T07:34:41.868Z,100803.47
2022-11-29T07:37:32.668Z,100808.41
2022-11-29T07:40:18.002Z,100806.78
2022-11-29T07:42:59.764Z,100805.06
2022-11-29T07:45:31.942Z,100814.47
2022-11-29T07:47:59.125Z,100809.31
2022-11-29T07:50:27.217Z,100812.97
2022-11-29T07:52:54.254Z,100815.25
2022-11-29T07:55:22.477Z,100810.03
2022-11-29T07:57:49.975Z,100814.91
2022-11-29T08:00:18.365Z,100818.38
2022-11-29T08:02:45.230Z,100807.31
2022-11-29T08:05:11.873Z,100814.38
2022-11-29T08:07:41.090Z,100811.25
2022-11-29T08:10:13.536Z,100810.03
2022-11-29T08:12:45.557Z,100821.81
2022-11-29T08:15:12.869Z,100811.31
2022-11-29T08:17:39.684Z,100813.03
2022-11-29T08:20:07.271Z,100809.47
2022-11-29T08:22:34.319Z,100816.06
2022-11-29T08:25:01.604Z,100817.75
2022-11-29T08:27:28.363Z,100815.94
2022-11-29T08:29:55.174Z,100820.22
2022-11-29T08:32:21.956Z,100815.00
2022-11-29T08:34:48.529Z,100818.53
2022-11-29T08:37:15.335Z,100822.84
2022-11-29T08:39:42.005Z,100815.00
2022-11-29T08:42:08.603Z,100827.31
2022-11-29T08:44:36.385Z,100822.56
2022-11-29T08:47:21.704Z,100827.19
2022-11-29T08:50:03.412Z,100815.56
2022-11-29T08:52:50.092Z,100831.59
2022-11-29T08:55:17.883Z,100822.09
2022-11-29T08:57:44.490Z,100827.56
2022-11-29T09:00:12.353Z,100825.78
2022-11-29T09:02:39.331Z,100817.34
2022-11-29T09:05:06.820Z,100817.50
2022-11-29T09:07:34.585Z,100818.75
2022-11-29T09:10:05.481Z,100817.06
2022-11-29T09:12:32.761Z,100817.16
2022-11-29T09:14:59.465Z,100818.06
2022-11-29T09:17:26.069Z,100816.56
2022-11-29T09:19:52.711Z,100817.28
2022-11-29T09:22:19.348Z,100820.38
2022-11-29T09:24:46.954Z,100815.09
2022-11-29T09:27:13.786Z,100809.28
2022-11-29T09:29:40.321Z,100811.63
2022-11-29T09:32:07.168Z,100806.50
2022-11-29T09:34:35.900Z,100815.16
2022-11-29T09:37:02.584Z,100811.75
2022-11-29T09:39:29.420Z,100818.72
2022-11-29T09:42:27.440Z,100800.06
2022-11-29T09:45:07.774Z,100813.31
2022-11-29T09:48:02.569Z,100808.94
2022-11-29T09:50:37.272Z,100815.66
2022-11-29T09:53:14.211Z,100815.72
2022-11-29T09:56:15.078Z,100816.03
2022-11-29T09:58:48.189Z,100812.00
2022-11-29T10:01:21.261Z,100814.28
2022-11-29T10:03:52.146Z,100810.22
2022-11-29T10:06:24.411Z,100803.81
2022-11-29T10:09:03.129Z,100805.38
2022-11-29T10:11:47.897Z,100802.13
2022-11-29T10:14:18.360Z,100802.59
2022-11-29T10:16:53.189Z,100803.31
2022-11-29T10:19:21.538Z,100792.50
2022-11-29T10:22:03.599Z,100794.06
2022-11-29T10:24:31.998Z,100795.06
2022-11-29T10:26:58.812Z,100792.50
2022-11-29T10:29:25.776Z,100796.59
2022-11-29T10:31:56.755Z,100800.16
2022-11-29T10:34:25.947Z,100799.16
2022-11-29T10:37:03.421Z,100792.34
2022-11-29T10:39:49.295Z,100803.88
2022-11-29T10:42:39.569Z,100797.72
2022-11-29T10:45:17.148Z,100795.88
2022-11-29T10:47:46.693Z,100805.59
2022-11-29T10:50:17.633Z,100816.38
2022-11-29T10:52:44.122Z,100813.22
2022-11-29T10:55:14.045Z,100814.97
2022-11-29T10:58:15.687Z,100808.47
2022-11-29T11:01:09.480Z,100810.03
2022-11-29T11:03:42.870Z,100803.22
2022-11-29T11:06:24.476Z,100812.66
2022-11-29T11:08:55.288Z,100814.28
2022-11-29T11:11:30.857Z,100808.13
2022-11-29T11:14:23.128Z,100813.59
2022-11-29T11:16:50.274Z,100816.41
2022-11-29T11:19:30.843Z,100813.09
2022-11-29T11:21:59.304Z,100813.28
2022-11-29T11:24:35.544Z,100810.88
2022-11-29T11:27:04.201Z,100816.53
2022-11-29T11:29:44.374Z,100808.63
2022-11-29T11:32:19.508Z,100805.53
2022-11-29T11:34:53.984Z,100810.63
2022-11-29T11:37:34.314Z,100808.47
2022-11-29T11:40:19.068Z,100820.50
2022-11-29T11:42:45.887Z,100813.88
2022-11-29T11:45:12.556Z,100818.75
2022-11-29T11:47:49.275Z,100814.28
2022-11-29T11:50:24.150Z,100819.25
2022-11-29T11:52:54.062Z,100818.31
2022-11-29T11:55:36.836Z,100825.84
2022-11-29T11:58:10.335Z,100825.47
2022-11-29T12:04:14.995Z,100823.91
2022-11-29T12:07:02.919Z,100825.59
2022-11-29T12:09:59.314Z,100826.47
2022-11-29T12:12:37.275Z,100826.03
2022-11-29T12:15:07.780Z,100824.03
2022-11-29T12:17:52.809Z,100826.25
2022-11-29T12:20:40.031Z,100825.75
2022-11-29T12:23:22.073Z,100822.00
2022-11-29T12:25:52.140Z,100830.00
2022-11-29T12:28:21.097Z,100837.41
2022-11-29T12:30:56.564Z,100827.25
2022-11-29T12:33:49.855Z,100838.91
2022-11-29T12:36:24.780Z,100838.03
2022-11-29T12:39:00.155Z,100838.50
2022-11-29T12:42:00.432Z,100843.72
2022-11-29T12:44:37.713Z,100835.66
2022-11-29T12:47:40.192Z,100842.53
2022-11-29T12:50:19.033Z,100845.03
2022-11-29T12:53:04.158Z,100848.19
2022-11-29T12:55:50.993Z,100845.88
2022-11-29T12:58:27.349Z,100853.00
2022-11-29T13:01:12.886Z,100850.34
2022-11-29T13:03:39.928Z,100852.69
2022-11-29T13:06:30.381Z,100857.91
2022-11-29T13:09:12.014Z,100862.56
2022-11-29T13:11:43.196Z,100856.34
2022-11-29T13:14:42.215Z,100858.66
2022-11-29T13:17:36.865Z,100857.25
2022-11-29T13:20:39.364Z,100866.47
2022-11-29T13:23:17.686Z,100870.13
2022-11-29T13:25:46.369Z,100870.91
2022-11-29T13:28:29.989Z,100872.06
2022-11-29T13:31:01.079Z,100874.47
2022-11-29T13:33:55.717Z,100874.03
2022-11-29T13:36:49.375Z,100879.81
2022-11-29T13:39:46.515Z,100879.09
2022-11-29T13:42:19.627Z,100889.28
2022-11-29T13:45:05.433Z,100888.66
2022-11-29T13:47:32.066Z,100887.84
2022-11-29T13:50:37.232Z,100892.09
2022-11-29T13:53:12.611Z,100890.56
2022-11-29T13:55:59.836Z,100894.25
2022-11-29T13:58:29.276Z,100892.09
2022-11-29T14:01:00.932Z,100890.00
2022-11-29T14:03:39.176Z,100887.84
2022-11-29T14:06:14.238Z,100890.06
2022-11-29T14:11:42.950Z,100885.13
2022-11-29T14:14:30.122Z,100882.59
2022-11-29T14:17:02.409Z,100878.97
2022-11-29T14:19:33.986Z,100874.88
2022-11-29T14:22:06.613Z,100884.94
2022-11-29T14:24:34.223Z,100881.59
2022-11-29T14:27:06.452Z,100877.38
2022-11-29T14:29:52.652Z,100883.63
2022-11-29T14:32:22.750Z,100885.38
2022-11-29T14:34:59.400Z,100892.19
2022-11-29T14:38:02.072Z,100890.56
2022-11-29T14:40:28.454Z,100885.56
2022-11-29T14:42:54.943Z,100884.84
2022-11-29T14:45:30.022Z,100882.50
2022-11-29T14:47:57.074Z,100890.63
2022-11-29T14:50:36.431Z,100888.00
2022-11-29T14:53:04.952Z,100885.91
2022-11-29T14:55:35.482Z,100880.78
2022-11-29T14:58:06.249Z,100877.78
2022-11-29T15:00:32.925Z,100885.03
2022-11-29T15:03:17.146Z,100880.16
2022-11-29T15:05:46.351Z,100891.41
2022-11-29T15:08:20.566Z,100886.63
2022-11-29T15:10:52.297Z,100892.25
2022-11-29T15:13:28.937Z,100892.53
2022-11-29T15:16:16.658Z,100893.44
2022-11-29T15:19:23.214Z,100898.22
2022-11-29T15:21:56.613Z,100898.84
2022-11-29T15:24:28.482Z,100892.06
2022-11-29T15:27:00.047Z,100899.47
2022-11-29T15:29:28.393Z,100900.84
2022-11-29T15:31:57.554Z,100909.66
2022-11-29T15:34:37.574Z,100908.53
2022-11-29T15:37:04.739Z,100905.28
2022-11-29T15:39:34.224Z,100907.13
2022-11-29T15:42:11.807Z,100904.75
2022-11-29T15:44:45.747Z,100906.38
2022-11-29T15:47:22.901Z,100912.34
2022-11-29T15:49:50.661Z,100908.75
2022-11-29T15:52:25.904Z,100917.84
2022-11-29T15:54:56.915Z,100918.91
2022-11-29T15:57:43.249Z,100926.28
2022-11-29T16:00:20.356Z,100927.31
2022-11-29T16:02:55.744Z,100928.84
2022-11-29T16:05:31.252Z,100926.31
2022-11-29T16:08:01.563Z,100927.19
2022-11-29T16:10:36.162Z,100920.91
2022-11-29T16:13:26.214Z,100925.81
2022-11-29T16:16:06.397Z,100932.94
2022-11-29T16:18:34.049Z,100924.38
2022-11-29T16:21:05.762Z,100928.75
2022-11-29T16:23:41.383Z,100926.22
2022-11-29T16:26:12.380Z,100926.31
2022-11-29T16:28:44.861Z,100920.28
2022-11-29T16:31:18.334Z,100932.16
2022-11-29T16:33:47.663Z,100930.72
2022-11-29T16:36:17.441Z,100929.69
2022-11-29T16:38:46.340Z,100935.09
2022-11-29T16:41:35.419Z,100931.72
2022-11-29T16:44:03.503Z,100932.56
2022-11-29T16:46:37.196Z,100936.03
2022-11-29T16:49:30.562Z,100944.66
2022-11-29T16:51:57.249Z,100938.06
2022-11-29T16:54:31.974Z,100942.94
2022-11-29T16:56:58.624Z,100937.97
2022-11-29T16:59:28.070Z,100945.63
2022-11-29T17:01:56.562Z,100941.59
2022-11-29T17:04:24.984Z,100951.06
2022-11-29T17:06:56.032Z,100947.41
2022-11-29T17:09:25.933Z,100944.41
2022-11-29T17:11:52.992Z,100945.53
2022-11-29T17:14:19.470Z,100945.59
2022-11-29T17:16:49.359Z,100953.38
2022-11-29T17:19:16.188Z,100952.50
2022-11-29T17:21:42.732Z,100955.44
2022-11-29T17:24:14.377Z,100961.69
2022-11-29T17:26:41.513Z,100958.28
2022-11-29T17:29:10.004Z,100959.50
2022-11-29T17:31:36.576Z,100963.25
2022-11-29T17:34:03.415Z,100958.06
2022-11-29T17:36:30.573Z,100957.22
2022-11-29T17:38:59.103Z,100955.41
2022-11-29T17:41:26.837Z,100964.84
2022-11-29T17:43:54.539Z,100969.28
2022-11-29T17:46:23.137Z,100972.00
2022-11-29T17:48:50.654Z,100968.28
2022-11-29T17:51:50.098Z,100964.84
2022-11-29T17:54:05.986Z,100966.66
2022-11-29T17:56:32.852Z,100973.44
2022-11-29T17:59:01.417Z,100970.91
2022-11-29T18:01:30.667Z,100968.34
2022-11-29T18:04:00.474Z,100965.91
2022-11-29T18:06:28.975Z,100965.91
2022-11-29T18:08:57.679Z,100968.16
2022-11-29T18:11:30.477Z,100970.63
2022-11-29T18:13:58.021Z,100965.28
2022-11-29T18:16:27.601Z,100968.09
2022-11-29T18:19:08.238Z,100968.69
2022-11-29T18:21:36.052Z,100970.63
2022-11-29T18:24:03.856Z,100972.78
2022-11-29T18:26:31.530Z,100970.06
2022-11-29T18:28:58.418Z,100973.56
2022-11-29T18:31:28.345Z,100968.28
2022-11-29T18:34:00.131Z,100977.91
2022-11-29T18:36:31.609Z,100975.66
2022-11-29T18:39:03.781Z,100980.91
2022-11-29T18:41:31.060Z,100983.66
2022-11-29T18:43:59.863Z,100980.97
2022-11-29T18:46:32.195Z,100990.31
2022-11-29T18:49:02.561Z,100984.38
2022-11-29T18:51:30.459Z,100979.94
2022-11-29T18:53:58.125Z,100988.88
2022-11-29T18:56:26.475Z,100977.38
2022-11-29T18:58:58.171Z,100977.78
2022-11-29T19:01:27.559Z,100982.81
2022-11-29T19:03:55.297Z,100985.63
2022-11-29T19:06:24.084Z,100983.47
2022-11-29T19:08:51.881Z,100991.16
2022-11-29T19:11:23.672Z,100989.16
2022-11-29T19:13:56.501Z,100999.31
2022-11-29T19:16:24.010Z,100998.66
2022-11-29T19:18:52.295Z,100998.31
2022-11-29T19:21:20.475Z,101004.47
2022-11-29T19:23:53.347Z,100993.47
2022-11-29T19:26:20.167Z,100997.00
2022-11-29T19:28:47.453Z,100994.38
2022-11-29T19:31:15.946Z,100998.91
2022-11-29T19:33:44.830Z,101010.06
2022-11-29T19:36:19.515Z,101008.25
2022-11-29T19:38:51.693Z,101003.56
2022-11-29T19:41:34.527Z,101007.03
2022-11-29T19:44:04.457Z,101009.03
2022-11-29T19:46:35.918Z,101013.50
2022-11-29T19:49:04.607Z,101017.75
2022-11-29T19:51:31.487Z,101016.84
2022-11-29T19:54:00.924Z,101013.84
2022-11-29T19:56:28.251Z,101010.56
2022-11-29T19:58:55.273Z,101008.78
2022-11-29T20:01:25.102Z,101013.38
2022-11-29T20:03:52.305Z,101011.66
2022-11-29T20:06:19.244Z,101015.44
2022-11-29T20:08:45.852Z,101018.00
2022-11-29T20:11:19.594Z,101023.94
2022-11-29T20:13:48.247Z,101025.06
2022-11-29T20:16:15.980Z,101027.38
2022-11-29T20:18:50.492Z,101027.50
2022-11-29T20:21:23.082Z,101025.78
2022-11-29T20:23:49.758Z,101028.28
2022-11-29T20:26:18.331Z,101031.16
2022-11-29T20:28:46.416Z,101029.56
2022-11-29T20:31:15.850Z,101017.66
2022-11-29T20:33:43.878Z,101027.09
2022-11-29T20:36:35.735Z,101028.34
2022-11-29T20:39:39.711Z,101034.38
2022-11-29T20:42:25.124Z,101036.25
2022-11-29T20:44:57.686Z,101028.72
2022-11-29T20:47:26.750Z,101037.00
2022-11-29T20:49:54.034Z,101031.44
2022-11-29T20:52:42.714Z,101030.69
2022-11-29T20:55:09.256Z,101025.66
2022-11-29T20:57:38.237Z,101028.13
2022-11-29T21:00:07.299Z,101034.81
2022-11-29T21:02:34.192Z,101047.38
2022-11-29T21:05:00.842Z,101038.09
2022-11-29T21:07:27.781Z,101040.84
2022-11-29T21:09:58.062Z,101035.88
2022-11-29T21:12:28.508Z,101037.00
2022-11-29T21:14:55.240Z,101044.66
2022-11-29T21:17:23.036Z,101038.09
2022-11-29T21:19:49.676Z,101045.78
2022-11-29T21:22:35.840Z,101052.38
2022-11-29T21:25:30.030Z,101049.06
2022-11-29T21:27:56.713Z,101057.88
2022-11-29T21:30:27.210Z,101062.28
2022-11-29T21:32:54.052Z,101060.03
2022-11-29T21:35:20.681Z,101061.13
2022-11-29T21:37:47.272Z,101063.31
2022-11-29T21:40:14.476Z,101061.84
2022-11-29T21:42:41.184Z,101059.00
2022-11-29T21:45:14.842Z,101060.25
2022-11-29T21:47:41.861Z,101065.31
2022-11-29T21:50:08.615Z,101069.59
2022-11-29T21:52:35.348Z,101056.84
2022-11-29T21:55:02.099Z,101058.81
2022-11-29T21:57:28.662Z,101072.59
2022-11-29T21:59:55.189Z,101063.25
2022-11-29T22:02:21.743Z,101064.22
2022-11-29T22:04:48.869Z,101060.25
2022-11-29T22:07:15.657Z,101071.16
2022-11-29T22:09:42.346Z,101073.94
2022-11-29T22:12:32.008Z,101081.38
2022-11-29T22:14:55.615Z,101082.22
2022-11-29T22:17:22.216Z,101077.44
2022-11-29T22:19:48.900Z,101074.09
2022-11-29T22:22:15.539Z,101081.56
2022-11-29T22:24:41.976Z,101076.38
2022-11-29T22:27:08.407Z,101085.97
2022-11-29T22:29:35.782Z,101090.13
2022-11-29T22:32:02.271Z,101087.28
2022-11-29T22:34:28.846Z,101094.00
2022-11-29T22:36:55.782Z,101089.56
2022-11-29T22:39:22.696Z,101086.81
2022-11-29T22:41:53.930Z,101082.38
2022-11-29T22:44:21.356Z,101085.81
2022-11-29T22:46:47.891Z,101081.88
2022-11-29T22:49:14.520Z,101074.03
2022-11-29T22:51:41.097Z,101075.59
2022-11-29T22:54:09.329Z,101066.41
2022-11-29T22:56:41.044Z,101072.94
2022-11-29T22:59:08.593Z,101067.81
2022-11-29T23:01:37.124Z,101064.59
2022-11-29T23:04:05.975Z,101062.75
2022-11-29T23:06:52.780Z,101070.38
2022-11-29T23:09:22.474Z,101065.97
2022-11-29T23:11:54.088Z,101071.16
2022-11-29T23:14:22.331Z,101069.41
2022-11-29T23:16:49.435Z,101061.38
2022-11-29T23:19:16.284Z,101059.22
2022-11-29T23:21:45.745Z,101057.72
2022-11-29T23:24:12.755Z,101053.56
2022-11-29T23:26:42.589Z,101053.72
2022-11-29T23:29:11.920Z,101050.66
2022-11-29T23:31:38.847Z,101050.66
2022-11-29T23:34:05.545Z,101054.16
2022-11-29T23:36:32.447Z,101052.81
2022-11-29T23:38:59.146Z,101050.97
2022-11-29T23:41:25.957Z,101050.56
2022-11-29T23:43:52.379Z,101046.84
2022-11-29T23:46:21.593Z,101045.31
2022-11-29T23:48:48.452Z,101043.75
2022-11-29T23:51:15.944Z,101039.97
2022-11-29T23:53:42.896Z,101039.16
2022-11-29T23:56:12.714Z,101038.44
2022-11-29T23:58:39.307Z,101043.09
